Lammers, Minnesota
Current Conditions -  °F | °C
As of 8:13 AM on Thursday 29 Jan 2015 (Local Time) from KBJI Reporting Station
Light Snow Light Snow  
Wind Chill: -2°   Ceiling: 900
Heat Index: 15°   Visibility: 10mi
Dew Point: 12°   Wind: 18mph
Humidity: 89%   Direction: 310°NW
Pressure: 30.21"   Gusts: 22mph
Location:  47.545°N, 95.1206°W
Report Text: KBJI 291413Z AUTO 31016G19KT 10SM -SN OVC009 M10/M11 A3021 RMK AO2 T10971112
Loading
Personal Weather Stations






























Interactive Weather Map New forecast layout! Learn more

10-Day Weather Forecast

Advertisements
Track Severe Weather on mobile